createdAt,value
2018-05-29T00:00:36.821Z,26.43
2018-05-29T00:03:04.303Z,26.62
2018-05-29T00:05:31.779Z,25.30
2018-05-29T00:07:59.273Z,25.10
2018-05-29T00:10:26.748Z,27.40
2018-05-29T00:12:54.207Z,24.57
2018-05-29T00:15:21.695Z,24.67
2018-05-29T00:17:49.160Z,24.63
2018-05-29T00:20:16.669Z,26.03
2018-05-29T00:22:44.128Z,24.60
2018-05-29T00:25:11.606Z,24.48
2018-05-29T00:27:39.097Z,27.00
2018-05-29T00:30:06.569Z,25.80
2018-05-29T00:32:34.050Z,23.93
2018-05-29T00:35:01.515Z,26.23
2018-05-29T00:37:28.979Z,25.80
2018-05-29T00:39:56.468Z,24.60
2018-05-29T00:42:23.943Z,23.63
2018-05-29T00:44:51.430Z,24.37
2018-05-29T00:47:18.900Z,25.70
2018-05-29T00:49:46.567Z,24.90
2018-05-29T00:52:14.040Z,23.50
2018-05-29T00:54:41.516Z,24.80
2018-05-29T00:57:08.999Z,25.33
2018-05-29T00:59:36.467Z,23.83
2018-05-29T01:02:03.952Z,23.87
2018-05-29T01:04:31.416Z,25.47
2018-05-29T01:06:58.883Z,27.10
2018-05-29T01:09:26.374Z,26.47
2018-05-29T01:11:53.854Z,26.17
2018-05-29T01:14:21.353Z,25.85
2018-05-29T01:16:48.813Z,25.90
2018-05-29T01:19:16.280Z,24.97
2018-05-29T01:21:43.772Z,25.63
2018-05-29T01:24:11.237Z,24.37
2018-05-29T01:26:38.731Z,23.83
2018-05-29T01:29:06.376Z,25.97
2018-05-29T01:31:33.851Z,25.60
2018-05-29T01:34:01.348Z,27.93
2018-05-29T01:36:28.815Z,25.47
2018-05-29T01:38:56.314Z,26.35
2018-05-29T01:41:23.787Z,24.98
2018-05-29T01:43:51.255Z,26.27
2018-05-29T01:46:18.735Z,26.40
2018-05-29T01:48:46.224Z,25.17
2018-05-29T01:51:13.715Z,24.23
2018-05-29T01:53:41.181Z,23.53
2018-05-29T01:56:08.666Z,24.83
2018-05-29T01:58:36.153Z,24.50
2018-05-29T02:01:03.620Z,25.70
2018-05-29T02:03:31.109Z,26.60
2018-05-29T02:05:58.567Z,23.93
2018-05-29T02:08:26.036Z,25.67
2018-05-29T02:10:53.532Z,26.30
2018-05-29T02:13:21.007Z,26.10
2018-05-29T02:15:48.497Z,26.53
2018-05-29T02:18:15.961Z,27.23
2018-05-29T02:20:43.450Z,29.20
2018-05-29T02:23:10.924Z,27.90
2018-05-29T02:25:38.396Z,26.45
2018-05-29T02:28:05.899Z,26.00
2018-05-29T02:30:33.374Z,27.03
2018-05-29T02:33:00.857Z,27.50
2018-05-29T02:35:28.316Z,26.43
2018-05-29T02:37:55.807Z,25.60
2018-05-29T02:40:23.277Z,27.13
2018-05-29T02:42:50.753Z,26.40
2018-05-29T02:45:18.241Z,27.70
2018-05-29T02:47:45.721Z,26.47
2018-05-29T02:50:13.203Z,28.33
2018-05-29T02:52:40.670Z,27.73
2018-05-29T02:55:08.132Z,26.20
2018-05-29T02:57:35.620Z,28.53
2018-05-29T03:00:03.090Z,28.47
2018-05-29T03:02:30.944Z,28.97
2018-05-29T03:04:58.417Z,25.53
2018-05-29T03:07:25.887Z,28.03
2018-05-29T03:09:53.390Z,27.70
2018-05-29T03:12:20.859Z,29.87
2018-05-29T03:14:49.479Z,30.90
2018-05-29T03:17:16.955Z,27.50
2018-05-29T03:19:44.431Z,28.80
2018-05-29T03:22:11.917Z,28.90
2018-05-29T03:24:39.387Z,26.80
2018-05-29T03:27:06.877Z,29.27
2018-05-29T03:29:34.356Z,26.75
2018-05-29T03:32:01.852Z,26.07
2018-05-29T03:34:29.350Z,28.30
2018-05-29T03:36:56.800Z,26.43
2018-05-29T03:39:24.439Z,26.67
2018-05-29T03:41:51.906Z,25.87
2018-05-29T03:44:19.399Z,26.10
2018-05-29T03:46:46.870Z,26.10
2018-05-29T03:49:14.347Z,27.43
2018-05-29T03:51:41.831Z,27.65
2018-05-29T03:54:09.304Z,26.33
2018-05-29T03:56:36.789Z,24.40
2018-05-29T03:59:04.253Z,24.13
2018-05-29T04:01:31.722Z,24.07
2018-05-29T04:03:59.208Z,23.70
2018-05-29T04:06:26.675Z,25.70
2018-05-29T04:08:54.172Z,25.30
2018-05-29T04:11:21.633Z,22.60
2018-05-29T04:13:49.100Z,23.30
2018-05-29T04:16:16.593Z,25.17
2018-05-29T04:18:44.060Z,23.80
2018-05-29T04:21:11.577Z,24.47
2018-05-29T04:23:39.039Z,23.27
2018-05-29T04:26:06.512Z,23.13
2018-05-29T04:28:33.996Z,24.90
2018-05-29T04:31:01.473Z,23.33
2018-05-29T04:33:29.175Z,22.70
2018-05-29T04:35:56.644Z,21.67
2018-05-29T04:38:24.135Z,22.07
2018-05-29T04:40:51.604Z,21.50
2018-05-29T04:43:19.082Z,21.07
2018-05-29T04:45:46.583Z,23.02
2018-05-29T04:48:14.043Z,21.83
2018-05-29T04:50:41.532Z,21.87
2018-05-29T04:56:06.929Z,19.97
2018-05-29T04:58:34.401Z,19.40
2018-05-29T05:01:01.878Z,21.00
2018-05-29T05:03:29.359Z,21.00
2018-05-29T05:05:56.822Z,22.00
2018-05-29T05:08:24.338Z,22.63
2018-05-29T05:10:52.080Z,20.33
2018-05-29T05:13:19.556Z,21.47
2018-05-29T05:15:47.037Z,19.62
2018-05-29T05:18:14.506Z,20.87
2018-05-29T05:20:41.984Z,19.97
2018-05-29T05:23:09.457Z,20.43
2018-05-29T05:25:37.462Z,19.60
2018-05-29T05:28:04.947Z,18.63
2018-05-29T05:30:32.413Z,18.30
2018-05-29T05:32:59.907Z,19.77
2018-05-29T05:35:27.392Z,20.17
2018-05-29T05:37:54.872Z,20.00
2018-05-29T05:40:22.353Z,22.03
2018-05-29T05:42:49.833Z,18.97
2018-05-29T05:45:17.311Z,20.47
2018-05-29T05:47:44.778Z,19.73
2018-05-29T05:50:12.244Z,19.73
2018-05-29T05:52:40.778Z,21.10
2018-05-29T05:55:08.247Z,23.10
2018-05-29T05:57:35.738Z,21.63
2018-05-29T06:00:03.217Z,21.13
2018-05-29T06:02:30.695Z,19.77
2018-05-29T06:04:58.182Z,20.42
2018-05-29T06:07:25.650Z,20.50
2018-05-29T06:09:53.156Z,22.30
2018-05-29T06:12:20.620Z,20.43
2018-05-29T06:14:48.088Z,21.43
2018-05-29T06:17:15.576Z,23.30
2018-05-29T06:19:43.321Z,22.25
2018-05-29T06:22:10.796Z,22.53
2018-05-29T06:24:38.288Z,22.70
2018-05-29T06:27:05.761Z,23.10
2018-05-29T06:29:33.259Z,22.80
2018-05-29T06:32:00.733Z,22.40
2018-05-29T06:34:28.193Z,23.03
2018-05-29T06:36:55.688Z,24.13
2018-05-29T06:39:23.175Z,23.10
2018-05-29T06:41:50.660Z,25.07
2018-05-29T06:44:18.132Z,24.97
2018-05-29T06:46:45.821Z,23.17
2018-05-29T06:49:13.311Z,24.23
2018-05-29T06:51:40.777Z,25.60
2018-05-29T06:54:08.260Z,27.97
2018-05-29T06:56:35.719Z,25.90
2018-05-29T06:59:03.181Z,25.37
2018-05-29T07:01:30.673Z,26.00
2018-05-29T07:03:58.183Z,25.80
2018-05-29T07:06:25.648Z,24.10
2018-05-29T07:08:53.106Z,25.13
2018-05-29T07:11:20.577Z,25.23
2018-05-29T07:13:48.072Z,25.17
2018-05-29T07:16:15.537Z,25.55
2018-05-29T07:18:43.000Z,23.63
2018-05-29T07:21:10.480Z,26.77
2018-05-29T07:23:37.941Z,24.77
2018-05-29T07:26:05.415Z,23.95
2018-05-29T07:28:32.892Z,26.12
2018-05-29T07:31:00.355Z,23.50
2018-05-29T07:33:27.848Z,23.50
2018-05-29T07:35:55.316Z,23.70
2018-05-29T07:38:22.795Z,24.17
2018-05-29T07:40:50.261Z,24.30
2018-05-29T07:43:17.744Z,23.50
2018-05-29T07:45:45.204Z,25.80
2018-05-29T07:48:12.671Z,25.98
2018-05-29T07:50:40.155Z,24.90
2018-05-29T07:53:07.629Z,23.17
2018-05-29T07:55:35.124Z,23.47
2018-05-29T07:58:02.593Z,23.62
2018-05-29T08:00:30.060Z,22.30
2018-05-29T08:02:57.550Z,21.97
2018-05-29T08:05:25.031Z,23.03
2018-05-29T08:07:52.511Z,22.87
2018-05-29T08:10:19.984Z,23.75
2018-05-29T08:12:47.445Z,23.73
2018-05-29T08:15:14.933Z,22.10
2018-05-29T08:17:42.403Z,22.73
2018-05-29T08:20:09.892Z,24.03
2018-05-29T08:22:37.361Z,22.33
2018-05-29T08:25:04.819Z,21.97
2018-05-29T08:27:32.299Z,21.13
2018-05-29T08:29:59.760Z,23.70
2018-05-29T08:32:27.240Z,22.47
2018-05-29T08:34:54.740Z,23.40
2018-05-29T08:37:22.216Z,21.83
2018-05-29T08:39:49.724Z,21.17
2018-05-29T08:42:17.205Z,22.25
2018-05-29T08:44:44.847Z,23.52
2018-05-29T08:47:12.319Z,22.87
2018-05-29T08:49:39.789Z,22.70
2018-05-29T08:52:07.267Z,21.90
2018-05-29T08:54:34.732Z,22.45
2018-05-29T08:57:02.222Z,21.83
2018-05-29T08:59:29.696Z,21.80
2018-05-29T09:01:57.169Z,21.87
2018-05-29T09:04:24.649Z,21.97
2018-05-29T09:06:52.118Z,22.33
2018-05-29T09:09:19.614Z,22.80
2018-05-29T09:11:47.131Z,21.33
2018-05-29T09:14:14.564Z,21.87
2018-05-29T09:16:42.047Z,21.93
2018-05-29T09:19:09.521Z,23.33
2018-05-29T09:21:37.009Z,25.10
2018-05-29T09:24:04.485Z,26.07
2018-05-29T09:26:31.949Z,23.90
2018-05-29T09:28:59.437Z,23.43
2018-05-29T09:31:26.896Z,24.87
2018-05-29T09:33:54.389Z,26.17
2018-05-29T09:36:21.867Z,24.07
2018-05-29T09:38:49.336Z,25.80
2018-05-29T09:41:16.837Z,24.50
2018-05-29T09:43:44.297Z,23.30
2018-05-29T09:46:11.777Z,24.00
2018-05-29T09:48:39.241Z,25.03
2018-05-29T09:51:06.695Z,25.00
2018-05-29T09:53:34.194Z,23.27
2018-05-29T09:56:01.663Z,24.40
2018-05-29T09:58:29.470Z,24.97
2018-05-29T10:00:56.943Z,25.47
2018-05-29T10:03:24.408Z,24.27
2018-05-29T10:05:51.891Z,24.47
2018-05-29T10:08:19.354Z,24.20
2018-05-29T10:10:46.843Z,24.10
2018-05-29T10:13:14.370Z,24.80
2018-05-29T10:15:41.822Z,24.97
2018-05-29T10:18:09.299Z,24.20
2018-05-29T10:20:36.766Z,23.63
2018-05-29T10:23:04.240Z,24.60
2018-05-29T10:25:31.706Z,22.90
2018-05-29T10:27:59.180Z,24.60
2018-05-29T10:30:26.643Z,24.10
2018-05-29T10:32:54.140Z,24.67
2018-05-29T10:35:21.611Z,23.03
2018-05-29T10:37:49.079Z,22.30
2018-05-29T10:40:16.558Z,22.75
2018-05-29T10:42:44.027Z,22.80
2018-05-29T10:45:11.514Z,23.90
2018-05-29T10:47:38.980Z,23.50
2018-05-29T10:50:06.452Z,23.53
2018-05-29T10:52:33.997Z,23.83
2018-05-29T10:55:01.420Z,23.00
2018-05-29T10:57:28.908Z,23.93
2018-05-29T10:59:56.380Z,22.33
2018-05-29T11:02:23.844Z,23.47
2018-05-29T11:04:51.336Z,21.70
2018-05-29T11:07:18.805Z,22.60
2018-05-29T11:09:46.748Z,23.03
2018-05-29T11:12:14.215Z,21.40
2018-05-29T11:14:41.675Z,21.93
2018-05-29T11:17:09.148Z,21.93
2018-05-29T11:19:36.607Z,21.37
2018-05-29T11:22:04.106Z,22.07
2018-05-29T11:24:31.572Z,21.80
2018-05-29T11:26:59.051Z,20.30
2018-05-29T11:29:26.530Z,19.80
2018-05-29T11:31:54.001Z,19.60
2018-05-29T11:34:21.488Z,19.03
2018-05-29T11:36:49.000Z,20.10
2018-05-29T11:39:16.467Z,21.77
2018-05-29T11:41:43.952Z,19.67
2018-05-29T11:44:11.412Z,20.20
2018-05-29T11:46:38.907Z,18.58
2018-05-29T11:49:06.369Z,17.03
2018-05-29T11:51:33.836Z,18.58
2018-05-29T11:54:01.320Z,17.33
2018-05-29T11:56:28.792Z,17.23
2018-05-29T11:58:56.291Z,18.40
2018-05-29T12:01:23.759Z,18.00
2018-05-29T12:03:51.240Z,19.33
2018-05-29T12:06:18.705Z,17.73
2018-05-29T12:08:46.173Z,17.57
2018-05-29T12:11:13.653Z,17.70
2018-05-29T12:13:41.117Z,17.35
2018-05-29T12:16:08.604Z,17.50
2018-05-29T12:18:36.085Z,17.90
2018-05-29T12:21:03.551Z,18.57
2018-05-29T12:23:31.037Z,18.30
2018-05-29T12:25:58.502Z,17.93
2018-05-29T12:28:26.005Z,17.77
2018-05-29T12:30:53.481Z,19.33
2018-05-29T12:33:20.958Z,19.10
2018-05-29T12:35:48.431Z,19.90
2018-05-29T12:38:15.895Z,19.73
2018-05-29T12:40:43.380Z,17.20
2018-05-29T12:43:10.831Z,18.10
2018-05-29T12:45:38.302Z,19.33
2018-05-29T12:48:05.791Z,16.90
2018-05-29T12:50:33.267Z,17.07
2018-05-29T12:53:00.762Z,17.37
2018-05-29T12:55:28.231Z,16.87
2018-05-29T12:57:55.718Z,17.50
2018-05-29T13:00:23.198Z,17.52
2018-05-29T13:02:50.679Z,16.33
2018-05-29T13:05:18.185Z,16.73
2018-05-29T13:07:45.689Z,16.97
2018-05-29T13:10:13.168Z,16.53
2018-05-29T13:12:40.636Z,16.83
2018-05-29T13:15:08.175Z,15.80
2018-05-29T13:17:35.636Z,16.93
2018-05-29T13:20:03.096Z,17.63
2018-05-29T13:22:30.631Z,17.47
2018-05-29T13:24:58.065Z,16.43
2018-05-29T13:27:25.648Z,14.60
2018-05-29T13:29:53.108Z,13.27
2018-05-29T13:32:20.573Z,14.17
2018-05-29T13:34:48.058Z,12.03
2018-05-29T13:37:15.567Z,12.20
2018-05-29T13:39:43.044Z,10.73
2018-05-29T13:42:10.508Z,10.90
2018-05-29T13:44:37.982Z,11.07
2018-05-29T13:47:05.510Z,10.87
2018-05-29T13:49:32.981Z,10.43
2018-05-29T13:52:00.480Z,10.50
2018-05-29T13:54:27.947Z,10.50
2018-05-29T13:56:55.431Z,11.02
2018-05-29T13:59:22.941Z,10.20
2018-05-29T14:01:50.401Z,11.20
2018-05-29T14:04:17.889Z,9.27
2018-05-29T14:06:45.356Z,10.10
2018-05-29T14:09:12.812Z,11.00
2018-05-29T14:11:40.303Z,12.17
2018-05-29T14:14:07.775Z,11.45
2018-05-29T14:16:35.276Z,11.37
2018-05-29T14:19:02.744Z,10.87
2018-05-29T14:21:30.567Z,12.55
2018-05-29T14:23:58.055Z,10.48
2018-05-29T14:26:25.516Z,11.30
2018-05-29T14:28:52.999Z,10.13
2018-05-29T14:31:20.468Z,10.70
2018-05-29T14:33:47.953Z,10.50
2018-05-29T14:36:15.420Z,10.57
2018-05-29T14:38:42.883Z,10.73
2018-05-29T14:41:10.355Z,11.75
2018-05-29T14:43:37.810Z,10.77
2018-05-29T14:46:05.306Z,11.97
2018-05-29T14:48:32.780Z,10.50
2018-05-29T14:51:00.248Z,9.93
2018-05-29T14:53:27.732Z,10.88
2018-05-29T14:55:55.201Z,12.03
2018-05-29T14:58:22.692Z,10.80
2018-05-29T15:00:50.801Z,10.82
2018-05-29T15:03:18.269Z,11.33
2018-05-29T15:05:45.753Z,10.80
2018-05-29T15:08:13.218Z,9.50
2018-05-29T15:10:40.707Z,11.40
2018-05-29T15:13:08.177Z,10.90
2018-05-29T15:15:35.654Z,10.23
2018-05-29T15:18:03.122Z,10.33
2018-05-29T15:20:30.580Z,10.53
2018-05-29T15:22:58.063Z,9.90
2018-05-29T15:25:25.524Z,9.90
2018-05-29T15:27:53.004Z,9.87
2018-05-29T15:30:20.464Z,10.70
2018-05-29T15:32:47.966Z,10.27
2018-05-29T15:35:15.444Z,9.43
2018-05-29T15:37:42.912Z,10.30
2018-05-29T15:40:10.398Z,10.20
2018-05-29T15:42:37.854Z,8.50
2018-05-29T15:45:05.320Z,9.27
2018-05-29T15:47:32.803Z,10.27
2018-05-29T15:50:00.527Z,8.87
2018-05-29T15:52:28.036Z,10.20
2018-05-29T15:54:55.794Z,9.70
2018-05-29T15:57:23.236Z,8.90
2018-05-29T15:59:50.744Z,21.90
2018-05-29T16:02:18.182Z,8.83
2018-05-29T16:04:45.663Z,10.80
2018-05-29T16:07:13.137Z,9.27
2018-05-29T16:09:40.617Z,8.67
2018-05-29T16:12:08.079Z,7.45
2018-05-29T16:14:35.541Z,7.70
2018-05-29T16:17:03.024Z,9.50
2018-05-29T16:19:30.501Z,11.00
2018-05-29T16:21:58.263Z,9.43
2018-05-29T16:24:25.723Z,9.80
2018-05-29T16:26:53.197Z,8.83
2018-05-29T16:29:20.689Z,8.73
2018-05-29T16:31:48.154Z,8.60
2018-05-29T16:34:15.638Z,7.80
2018-05-29T16:36:43.093Z,8.30
2018-05-29T16:39:10.692Z,8.82
2018-05-29T16:41:38.198Z,8.17
2018-05-29T16:44:05.660Z,8.97
2018-05-29T16:46:33.148Z,8.90
2018-05-29T16:49:00.617Z,7.73
2018-05-29T16:51:28.083Z,8.50
2018-05-29T16:53:55.558Z,8.50
2018-05-29T16:56:23.039Z,8.80
2018-05-29T16:58:50.506Z,13.73
2018-05-29T17:01:17.979Z,7.67
2018-05-29T17:03:45.460Z,7.90
2018-05-29T17:06:12.932Z,8.30
2018-05-29T17:08:40.393Z,7.17
2018-05-29T17:11:07.921Z,7.90
2018-05-29T17:13:35.393Z,8.33
2018-05-29T17:16:02.873Z,7.83
2018-05-29T17:18:30.437Z,8.50
2018-05-29T17:20:57.888Z,8.30
2018-05-29T17:23:25.377Z,8.18
2018-05-29T17:25:52.856Z,10.17
2018-05-29T17:28:20.350Z,9.55
2018-05-29T17:30:47.813Z,8.20
2018-05-29T17:33:15.268Z,9.20
2018-05-29T17:35:42.752Z,9.77
2018-05-29T17:38:10.983Z,9.15
2018-05-29T17:40:38.533Z,9.87
2018-05-29T17:43:06.017Z,8.87
2018-05-29T17:45:33.559Z,9.07
2018-05-29T17:48:01.081Z,8.60
2018-05-29T17:50:28.555Z,7.53
2018-05-29T17:52:56.035Z,10.40
2018-05-29T17:55:23.513Z,16.12
2018-05-29T17:57:50.995Z,10.40
2018-05-29T18:00:19.343Z,9.37
2018-05-29T18:02:46.868Z,9.23
2018-05-29T18:05:14.642Z,8.73
2018-05-29T18:07:42.099Z,11.50
2018-05-29T18:10:09.588Z,8.27
2018-05-29T18:12:37.069Z,12.53
2018-05-29T18:15:04.597Z,10.23
2018-05-29T18:17:32.074Z,9.43
2018-05-29T18:19:59.545Z,9.60
2018-05-29T18:22:27.020Z,9.40
2018-05-29T18:24:54.488Z,8.97
2018-05-29T18:27:21.984Z,9.80
2018-05-29T18:29:49.439Z,9.10
2018-05-29T18:32:16.893Z,9.90
2018-05-29T18:34:44.369Z,10.00
2018-05-29T18:37:11.833Z,9.40
2018-05-29T18:39:39.324Z,8.83
2018-05-29T18:42:06.784Z,9.47
2018-05-29T18:44:34.283Z,11.20
2018-05-29T18:47:01.771Z,13.82
2018-05-29T18:49:29.234Z,9.32
2018-05-29T18:51:56.755Z,10.40
2018-05-29T18:54:24.240Z,10.33
2018-05-29T18:56:51.702Z,11.13
2018-05-29T18:59:19.193Z,10.77
2018-05-29T19:01:46.807Z,10.60
2018-05-29T19:04:14.541Z,9.27
2018-05-29T19:06:42.027Z,11.00
2018-05-29T19:09:09.864Z,10.20
2018-05-29T19:11:37.845Z,15.73
2018-05-29T19:14:05.637Z,12.13
2018-05-29T19:16:33.162Z,11.83
2018-05-29T19:19:00.678Z,12.53
2018-05-29T19:21:28.216Z,11.60
2018-05-29T19:23:56.029Z,11.43
2018-05-29T19:26:23.482Z,12.90
2018-05-29T19:28:51.279Z,12.30
2018-05-29T19:31:18.806Z,11.87
2018-05-29T19:33:47.034Z,12.40
2018-05-29T19:36:14.867Z,12.40
2018-05-29T19:38:42.322Z,16.35
2018-05-29T19:41:10.468Z,15.17
2018-05-29T19:43:37.981Z,13.55
2018-05-29T19:46:05.421Z,12.80
2018-05-29T19:48:33.085Z,13.83
2018-05-29T19:51:01.076Z,13.07
2018-05-29T19:53:28.653Z,14.03
2018-05-29T19:55:56.103Z,12.90
2018-05-29T19:58:23.853Z,12.50
2018-05-29T20:00:51.328Z,12.57
2018-05-29T20:03:18.839Z,14.30
2018-05-29T20:05:46.336Z,13.77
2018-05-29T20:08:13.799Z,12.73
2018-05-29T20:10:41.294Z,14.30
2018-05-29T20:13:08.768Z,14.63
2018-05-29T20:15:36.232Z,13.37
2018-05-29T20:18:03.708Z,14.20
2018-05-29T20:20:32.174Z,13.30
2018-05-29T20:22:59.699Z,14.73
2018-05-29T20:25:27.168Z,14.43
2018-05-29T20:27:54.648Z,14.57
2018-05-29T20:30:22.120Z,13.97
2018-05-29T20:32:49.582Z,13.07
2018-05-29T20:35:17.098Z,13.70
2018-05-29T20:37:44.570Z,13.77
2018-05-29T20:40:12.064Z,14.13
2018-05-29T20:42:39.552Z,14.07
2018-05-29T20:45:07.035Z,13.30
2018-05-29T20:47:35.063Z,14.32
2018-05-29T20:50:02.591Z,13.23
2018-05-29T20:52:30.010Z,13.80
2018-05-29T20:54:57.644Z,13.77
2018-05-29T20:57:25.109Z,13.30
2018-05-29T20:59:53.990Z,13.40
2018-05-29T21:02:21.511Z,14.13
2018-05-29T21:04:48.987Z,12.80
2018-05-29T21:07:16.475Z,13.37
2018-05-29T21:09:43.940Z,13.97
2018-05-29T21:12:11.432Z,13.80
2018-05-29T21:14:39.272Z,13.90
2018-05-29T21:17:06.736Z,13.13
2018-05-29T21:19:34.223Z,12.60
2018-05-29T21:22:01.687Z,13.60
2018-05-29T21:24:29.176Z,12.50
2018-05-29T21:26:56.643Z,14.57
2018-05-29T21:29:24.105Z,14.07
2018-05-29T21:31:51.588Z,12.35
2018-05-29T21:34:19.061Z,13.40
2018-05-29T21:36:46.570Z,13.25
2018-05-29T21:39:14.039Z,13.43
2018-05-29T21:41:41.845Z,13.35
2018-05-29T21:44:09.329Z,14.10
2018-05-29T21:46:36.805Z,13.97
2018-05-29T21:49:04.299Z,13.63
2018-05-29T21:51:31.775Z,14.82
2018-05-29T21:53:59.266Z,13.18
2018-05-29T21:56:26.723Z,14.10
2018-05-29T21:58:54.191Z,13.90
2018-05-29T22:01:21.668Z,13.63
2018-05-29T22:03:49.140Z,13.65
2018-05-29T22:06:16.639Z,14.67
2018-05-29T22:08:44.116Z,16.47
2018-05-29T22:11:11.670Z,15.10
2018-05-29T22:13:39.167Z,14.37
2018-05-29T22:16:06.628Z,15.20
2018-05-29T22:18:34.123Z,15.27
2018-05-29T22:21:01.677Z,16.00
2018-05-29T22:23:29.111Z,13.60
2018-05-29T22:25:56.576Z,15.93
2018-05-29T22:28:24.048Z,15.30
2018-05-29T22:30:51.523Z,16.20
2018-05-29T22:33:18.990Z,13.90
2018-05-29T22:35:47.405Z,14.57
2018-05-29T22:38:14.866Z,15.03
2018-05-29T22:40:42.332Z,14.73
2018-05-29T22:43:09.825Z,14.60
2018-05-29T22:45:37.299Z,14.20
2018-05-29T22:48:04.786Z,16.35
2018-05-29T22:50:32.257Z,15.57
2018-05-29T22:52:59.723Z,15.00
2018-05-29T22:55:27.220Z,15.10
2018-05-29T22:57:54.697Z,16.50
2018-05-29T23:00:22.192Z,16.53
2018-05-29T23:02:49.658Z,13.97
2018-05-29T23:05:17.150Z,17.00
2018-05-29T23:07:45.866Z,15.33
2018-05-29T23:10:13.329Z,15.97
2018-05-29T23:12:40.815Z,15.57
2018-05-29T23:15:08.284Z,15.73
2018-05-29T23:17:35.785Z,15.10
2018-05-29T23:20:03.316Z,14.80
2018-05-29T23:22:30.786Z,16.47
2018-05-29T23:24:58.272Z,17.20
2018-05-29T23:27:25.735Z,16.33
2018-05-29T23:29:53.222Z,16.60
2018-05-29T23:32:20.691Z,17.27
2018-05-29T23:34:48.175Z,16.33
2018-05-29T23:37:15.648Z,15.90
2018-05-29T23:39:43.108Z,15.93
2018-05-29T23:42:10.600Z,16.87
2018-05-29T23:44:38.056Z,16.67
2018-05-29T23:47:05.534Z,16.10
2018-05-29T23:49:32.995Z,16.60
2018-05-29T23:52:00.484Z,17.00
2018-05-29T23:54:27.943Z,15.90
2018-05-29T23:56:55.415Z,17.37
2018-05-29T23:59:22.896Z,15.40
